Map

Track Data

SID SEASON NUMBER BASIN SUBBASIN NAME ISO_TIME NATURE LAT LON WMO_WIND WMO_PRES WMO_AGENCY TRACK_TYPE DIST2LAND LANDFALL IFLAG USA_AGENCY USA_ATCF_ID USA_LAT USA_LON USA_RECORD USA_STATUS USA_WIND USA_PRES USA_SSHS USA_R34_NE USA_R34_SE USA_R34_SW USA_R34_NW USA_R50_NE USA_R50_SE USA_R50_SW USA_R50_NW USA_R64_NE USA_R64_SE USA_R64_SW USA_R64_NW USA_POCI USA_ROCI USA_RMW USA_EYE TOKYO_LAT TOKYO_LON TOKYO_GRADE TOKYO_WIND TOKYO_PRES TOKYO_R50_DIR TOKYO_R50_LONG TOKYO_R50_SHORT TOKYO_R30_DIR TOKYO_R30_LONG TOKYO_R30_SHORT TOKYO_LAND CMA_LAT CMA_LON CMA_CAT CMA_WIND CMA_PRES HKO_LAT HKO_LON HKO_CAT HKO_WIND HKO_PRES NEWDELHI_LAT NEWDELHI_LON NEWDELHI_GRADE NEWDELHI_WIND NEWDELHI_PRES NEWDELHI_CI NEWDELHI_DP NEWDELHI_POCI REUNION_LAT REUNION_LON REUNION_TYPE REUNION_WIND REUNION_PRES REUNION_TNUM REUNION_CI REUNION_RMW REUNION_R34_NE REUNION_R34_SE REUNION_R34_SW REUNION_R34_NW REUNION_R50_NE REUNION_R50_SE REUNION_R50_SW REUNION_R50_NW REUNION_R64_NE REUNION_R64_SE REUNION_R64_SW REUNION_R64_NW BOM_LAT BOM_LON BOM_TYPE BOM_WIND BOM_PRES BOM_TNUM BOM_CI BOM_RMW BOM_R34_NE BOM_R34_SE BOM_R34_SW BOM_R34_NW BOM_R50_NE BOM_R50_SE BOM_R50_SW BOM_R50_NW BOM_R64_NE BOM_R64_SE BOM_R64_SW BOM_R64_NW BOM_ROCI BOM_POCI BOM_EYE BOM_POS_METHOD BOM_PRES_METHOD NADI_LAT NADI_LON NADI_CAT NADI_WIND NADI_PRES WELLINGTON_LAT WELLINGTON_LON WELLINGTON_WIND WELLINGTON_PRES DS824_LAT DS824_LON DS824_STAGE DS824_WIND DS824_PRES TD9636_LAT TD9636_LON TD9636_STAGE TD9636_WIND TD9636_PRES TD9635_LAT TD9635_LON TD9635_WIND TD9635_PRES TD9635_ROCI NEUMANN_LAT NEUMANN_LON NEUMANN_CLASS NEUMANN_WIND NEUMANN_PRES MLC_LAT MLC_LON MLC_CLASS MLC_WIND MLC_PRES USA_GUST BOM_GUST BOM_GUST_PER REUNION_GUST REUNION_GUST_PER USA_SEAHGT USA_SEARAD_NE USA_SEARAD_SE USA_SEARAD_SW USA_SEARAD_NW STORM_SPEED STORM_DIR
1901288N21280 1901 39 NA CS NOT_NAMED 1901-10-15 00:00:00 TS 21.0000 -80.0000 30 hurdat_atl main 78 49 O_____________ hurdat_atl AL121901 21.0000 -80.0000 TD 30 -1 8 52
1901288N21280 1901 39 NA CS NOT_NAMED 1901-10-15 03:00:00 TS 21.2501 -79.6602 main 39 10 P_____________ AL121901 21.2501 -79.6602 TD 30 -1 8 53
1901288N21280 1901 39 NA CS NOT_NAMED 1901-10-15 06:00:00 TS 21.5000 -79.3000 30 hurdat_atl main 10 0 O_____________ hurdat_atl AL121901 21.5000 -79.3000 TD 30 -1 9 54
1901288N21280 1901 39 NA NA NOT_NAMED 1901-10-15 09:00:00 TS 21.7500 -78.9074 main 0 0 P_____________ AL121901 21.7500 -78.9074 TD 30 -1 9 56
1901288N21280 1901 39 NA NA NOT_NAMED 1901-10-15 12:00:00 TS 22.0000 -78.5000 30 hurdat_atl main 0 0 O_____________ hurdat_atl AL121901 22.0000 -78.5000 TD 30 -1 9 55
1901288N21280 1901 39 NA NA NOT_NAMED 1901-10-15 15:00:00 TS 22.2573 -78.1149 main 30 30 P_____________ AL121901 22.2573 -78.1149 TD 32 -1 9 56
1901288N21280 1901 39 NA NA NOT_NAMED 1901-10-15 18:00:00 TS 22.5000 -77.7000 35 hurdat_atl main 63 63 O_____________ hurdat_atl AL121901 22.5000 -77.7000 TS 35 0 10 62
1901288N21280 1901 39 NA NA NOT_NAMED 1901-10-15 21:00:00 TS 22.7075 -77.2074 main 108 108 P_____________ AL121901 22.7075 -77.2074 TS 37 0 10 67
1901288N21280 1901 39 NA NA NOT_NAMED 1901-10-16 00:00:00 TS 22.9000 -76.7000 40 hurdat_atl main 140 140 O_____________ hurdat_atl AL121901 22.9000 -76.7000 TS 40 0 10 66
1901288N21280 1901 39 NA NA NOT_NAMED 1901-10-16 03:00:00 TS 23.0999 -76.2349 main 181 181 P_____________ AL121901 23.0999 -76.2349 TS 42 0 9 64
1901288N21280 1901 39 NA NA NOT_NAMED 1901-10-16 06:00:00 TS 23.3000 -75.8000 45 hurdat_atl main 223 223 O_____________ hurdat_atl AL121901 23.3000 -75.8000 TS 45 0 8 63
1901288N21280 1901 39 NA NA NOT_NAMED 1901-10-16 09:00:00 TS 23.4845 -75.4295 main 258 258 P_____________ AL121901 23.4845 -75.4295 TS 47 0 8 61
1901288N21280 1901 39 NA NA NOT_NAMED 1901-10-16 12:00:00 TS 23.7000 -75.0000 50 hurdat_atl main 288 288 O_____________ hurdat_atl AL121901 23.7000 -75.0000 TS 50 0 11 63
1901288N21280 1901 39 NA NA NOT_NAMED 1901-10-16 15:00:00 TS 23.9626 -74.3872 main 332 328 P_____________ AL121901 23.9626 -74.3872 TS 50 0 13 63
1901288N21280 1901 39 NA NA NOT_NAMED 1901-10-16 18:00:00 TS 24.3000 -73.7000 50 hurdat_atl main 350 348 O_____________ hurdat_atl AL121901 24.3000 -73.7000 TS 50 0 15 57
1901288N21280 1901 39 NA NA NOT_NAMED 1901-10-16 21:00:00 TS 24.7497 -73.0502 main 391 391 P_____________ AL121901 24.7497 -73.0502 TS 50 0 15 53
1901288N21280 1901 39 NA NA NOT_NAMED 1901-10-17 00:00:00 TS 25.2000 -72.4000 50 hurdat_atl main 451 451 O_____________ hurdat_atl AL121901 25.2000 -72.4000 TS 50 0 14 57
1901288N21280 1901 39 NA NA NOT_NAMED 1901-10-17 03:00:00 TS 25.5144 -71.7715 main 495 495 P_____________ AL121901 25.5144 -71.7715 TS 50 0 13 63
1901288N21280 1901 39 NA NA NOT_NAMED 1901-10-17 06:00:00 TS 25.8000 -71.1000 50 hurdat_atl main 549 549 O_____________ hurdat_atl AL121901 25.8000 -71.1000 TS 50 0 15 64
1901288N21280 1901 39 NA NA NOT_NAMED 1901-10-17 09:00:00 TS 26.1655 -70.2856 main 622 622 P_____________ AL121901 26.1655 -70.2856 TS 47 0 16 64
1901288N21280 1901 39 NA NA NOT_NAMED 1901-10-17 12:00:00 TS 26.5000 -69.5000 45 hurdat_atl main 690 690 O_____________ hurdat_atl AL121901 26.5000 -69.5000 TS 45 0 13 66
1901288N21280 1901 39 NA NA NOT_NAMED 1901-10-17 15:00:00 TS 26.7217 -68.9192 main 742 742 P_____________ AL121901 26.7217 -68.9192 TS 42 0 11 68
1901288N21280 1901 39 NA NA NOT_NAMED 1901-10-17 18:00:00 TS 26.9000 -68.4000 40 hurdat_atl main 789 789 O_____________ hurdat_atl AL121901 26.9000 -68.4000 TS 40 0 11 69
1901288N21280 1901 39 NA NA NOT_NAMED 1901-10-17 21:00:00 TS 27.1074 -67.8000 main 844 844 P_____________ AL121901 27.1074 -67.8000 TS 40 0 11 69
1901288N21280 1901 39 NA NA NOT_NAMED 1901-10-18 00:00:00 TS 27.3000 -67.2000 40 hurdat_atl main 899 899 O_____________ hurdat_atl AL121901 27.3000 -67.2000 TS 40 0 11 72
1901288N21280 1901 39 NA NA NOT_NAMED 1901-10-18 03:00:00 TS 27.4497 -66.6421 main 937 937 P_____________ AL121901 27.4497 -66.6421 TS 40 0 10 73
1901288N21280 1901 39 NA NA NOT_NAMED 1901-10-18 06:00:00 ET 27.6000 -66.1000 40 hurdat_atl main 978 978 O_____________ hurdat_atl AL121901 27.6000 -66.1000 EX 40 -4 10 70
1901288N21280 1901 39 NA NA NOT_NAMED 1901-10-18 09:00:00 ET 27.7921 -65.5648 main 1019 1019 P_____________ AL121901 27.7921 -65.5648 EX 40 -4 11 68
1901288N21280 1901 39 NA NA NOT_NAMED 1901-10-18 12:00:00 ET 28.0000 -65.0000 40 hurdat_atl main 1066 1066 O_____________ hurdat_atl AL121901 28.0000 -65.0000 EX 40 -4 11 69
1901288N21280 1901 39 NA NA NOT_NAMED 1901-10-18 15:00:00 ET 28.2033 -64.3705 main 1102 1102 P_____________ AL121901 28.2033 -64.3705 EX 40 -4 12 71
1901288N21280 1901 39 NA NA NOT_NAMED 1901-10-18 18:00:00 ET 28.4000 -63.7000 40 hurdat_atl main 1134 O_____________ hurdat_atl AL121901 28.4000 -63.7000 EX 40 -4 12 72

About IBTrACS Database

This database is a web-friendly format of International Best Track Archive for Climate Stewardship (IBTrACS), a global best track data archive curated by NOAA dating back to 1842.

Updated: 2021-11-26